createdAt,value
2024-05-09T00:01:48.950Z,98076.09
2024-05-09T00:04:35.343Z,98083.72
2024-05-09T00:07:21.440Z,98081.00
2024-05-09T00:10:11.779Z,98085.28
2024-05-09T00:13:04.844Z,98085.66
2024-05-09T00:15:51.478Z,98081.31
2024-05-09T00:18:37.947Z,98078.25
2024-05-09T00:21:24.139Z,98068.88
2024-05-09T00:24:10.707Z,98073.34
2024-05-09T00:26:57.046Z,98076.34
2024-05-09T00:29:43.214Z,98075.53
2024-05-09T00:32:29.553Z,98076.09
2024-05-09T00:35:15.790Z,98069.59
2024-05-09T00:38:02.189Z,98069.13
2024-05-09T00:40:48.552Z,98072.13
2024-05-09T00:43:35.024Z,98070.69
2024-05-09T00:46:21.604Z,98070.69
2024-05-09T00:49:08.170Z,98068.69
2024-05-09T00:51:57.261Z,98072.34
2024-05-09T00:54:43.084Z,98068.69
2024-05-09T00:57:29.282Z,98062.63
2024-05-09T01:00:26.072Z,98065.25
2024-05-09T01:03:18.194Z,98060.16
2024-05-09T01:06:04.762Z,98064.97
2024-05-09T01:08:50.929Z,98062.94
2024-05-09T01:11:38.348Z,98059.00
2024-05-09T01:14:24.681Z,98061.03
2024-05-09T01:17:11.202Z,98062.38
2024-05-09T01:19:57.178Z,98065.13
2024-05-09T01:22:45.401Z,98060.00
2024-05-09T01:25:32.975Z,98069.22
2024-05-09T01:28:19.289Z,98072.44
2024-05-09T01:31:05.531Z,98066.72
2024-05-09T01:33:51.651Z,98066.41
2024-05-09T01:36:37.895Z,98074.25
2024-05-09T01:39:24.175Z,98067.09
2024-05-09T01:42:10.442Z,98073.88
2024-05-09T01:44:56.718Z,98072.63
2024-05-09T01:47:43.435Z,98076.00
2024-05-09T01:50:38.066Z,98074.69
2024-05-09T01:53:27.545Z,98072.78
2024-05-09T01:56:14.286Z,98074.81
2024-05-09T01:59:00.521Z,98080.06
2024-05-09T02:01:56.537Z,98082.88
2024-05-09T02:04:47.854Z,98086.34
2024-05-09T02:07:35.911Z,98083.69
2024-05-09T02:10:26.564Z,98081.72
2024-05-09T02:13:18.643Z,98089.44
2024-05-09T02:16:04.823Z,98090.22
2024-05-09T02:18:51.271Z,98091.88
2024-05-09T02:21:37.606Z,98096.31
2024-05-09T02:24:24.210Z,98092.66
2024-05-09T02:27:10.411Z,98085.59
2024-05-09T02:29:56.584Z,98088.25
2024-05-09T02:32:43.143Z,98083.97
2024-05-09T02:35:29.649Z,98093.03
2024-05-09T02:38:15.733Z,98087.97
2024-05-09T02:41:02.085Z,98092.06
2024-05-09T02:43:48.254Z,98095.50
2024-05-09T02:46:35.634Z,98092.25
2024-05-09T02:49:21.930Z,98094.22
2024-05-09T02:52:08.276Z,98088.78
2024-05-09T02:54:54.657Z,98089.63
2024-05-09T02:57:40.930Z,98087.97
2024-05-09T03:00:35.247Z,98093.03
2024-05-09T03:03:26.285Z,98094.88
2024-05-09T03:06:12.528Z,98093.03
2024-05-09T03:08:58.532Z,98086.97
2024-05-09T03:11:46.047Z,98092.59
2024-05-09T03:14:32.564Z,98084.44
2024-05-09T03:17:18.891Z,98092.22
2024-05-09T03:20:09.139Z,98096.38
2024-05-09T03:22:58.146Z,98089.22
2024-05-09T03:25:44.457Z,98097.44
2024-05-09T03:28:30.664Z,98089.75
2024-05-09T03:31:19.298Z,98090.91
2024-05-09T03:34:06.120Z,98085.84
2024-05-09T03:36:52.614Z,98087.63
2024-05-09T03:39:38.950Z,98085.66
2024-05-09T03:42:24.937Z,98096.00
2024-05-09T03:45:11.015Z,98104.53
2024-05-09T03:47:57.508Z,98103.34
2024-05-09T03:50:43.876Z,98102.53
2024-05-09T03:53:30.506Z,98108.81
2024-05-09T03:56:16.780Z,98110.59
2024-05-09T03:59:03.280Z,98107.63
2024-05-09T04:01:49.983Z,98112.53
2024-05-09T04:04:36.549Z,98111.53
2024-05-09T04:07:23.583Z,98119.09
2024-05-09T04:10:17.131Z,98112.81
2024-05-09T04:13:10.995Z,98119.69
2024-05-09T04:15:57.192Z,98124.16
2024-05-09T04:18:43.456Z,98122.34
2024-05-09T04:21:29.742Z,98134.88
2024-05-09T04:24:15.950Z,98132.59
2024-05-09T04:27:01.915Z,98137.66
2024-05-09T04:29:47.914Z,98138.97
2024-05-09T04:32:34.812Z,98144.03
2024-05-09T04:35:22.489Z,98150.28
2024-05-09T04:38:11.492Z,98146.03
2024-05-09T04:40:57.907Z,98136.47
2024-05-09T04:43:44.746Z,98148.03
2024-05-09T04:46:30.798Z,98147.00
2024-05-09T04:49:16.979Z,98155.75
2024-05-09T04:52:03.575Z,98155.56
2024-05-09T04:54:49.804Z,98163.63
2024-05-09T04:57:36.178Z,98158.56
2024-05-09T05:00:32.203Z,98165.97
2024-05-09T05:03:22.574Z,98164.34
2024-05-09T05:06:09.020Z,98161.72
2024-05-09T05:08:57.322Z,98169.41
2024-05-09T05:11:43.686Z,98170.06
2024-05-09T05:14:30.392Z,98174.34
2024-05-09T05:17:17.033Z,98175.16
2024-05-09T05:20:03.557Z,98171.53
2024-05-09T05:22:50.615Z,98178.91
2024-05-09T05:25:37.149Z,98172.28
2024-05-09T05:28:23.620Z,98180.44
2024-05-09T05:31:09.952Z,98174.84
2024-05-09T05:33:56.603Z,98171.22
2024-05-09T05:36:42.998Z,98168.84
2024-05-09T05:39:29.030Z,98167.75
2024-05-09T05:42:15.244Z,98175.41
2024-05-09T05:45:01.650Z,98173.22
2024-05-09T05:47:48.022Z,98178.16
2024-05-09T05:50:37.279Z,98174.25
2024-05-09T05:53:24.832Z,98173.63
2024-05-09T05:56:11.160Z,98170.53
2024-05-09T05:58:57.445Z,98164.97
2024-05-09T06:01:43.981Z,98169.97
2024-05-09T06:04:30.107Z,98177.03
2024-05-09T06:07:16.602Z,98174.19
2024-05-09T06:10:03.904Z,98171.06
2024-05-09T06:12:51.537Z,98173.75
2024-05-09T06:15:38.906Z,98166.88
2024-05-09T06:18:25.710Z,98162.47
2024-05-09T06:21:12.209Z,98160.91
2024-05-09T06:23:58.828Z,98167.13
2024-05-09T06:26:46.484Z,98166.78
2024-05-09T06:29:33.178Z,98169.56
2024-05-09T06:32:19.621Z,98164.78
2024-05-09T06:35:06.584Z,98168.75
2024-05-09T06:37:52.921Z,98167.22
2024-05-09T06:40:42.448Z,98171.16
2024-05-09T06:43:30.289Z,98168.16
2024-05-09T06:46:16.453Z,98169.66
2024-05-09T06:49:08.089Z,98162.66
2024-05-09T06:51:54.489Z,98162.28
2024-05-09T06:54:40.733Z,98164.19
2024-05-09T06:57:30.158Z,98164.47
2024-05-09T07:00:23.094Z,98163.50
2024-05-09T07:03:18.564Z,98161.06
2024-05-09T07:06:05.952Z,98160.66
2024-05-09T07:08:52.727Z,98166.19
2024-05-09T07:11:39.112Z,98156.38
2024-05-09T07:14:25.888Z,98153.31
2024-05-09T07:17:12.542Z,98153.91
2024-05-09T07:20:00.380Z,98158.72
2024-05-09T07:22:46.708Z,98153.38
2024-05-09T07:25:32.901Z,98151.72
2024-05-09T07:28:22.143Z,98147.16
2024-05-09T07:31:09.517Z,98158.53
2024-05-09T07:33:55.655Z,98144.19
2024-05-09T07:36:42.287Z,98148.19
2024-05-09T07:39:28.967Z,98147.69
2024-05-09T07:42:15.394Z,98154.09
2024-05-09T07:45:20.957Z,98144.16
2024-05-09T07:52:46.043Z,98142.84
2024-05-09T07:54:04.423Z,98149.44
2024-05-09T07:56:51.120Z,98139.91
2024-05-09T07:59:38.006Z,98140.22
2024-05-09T08:02:24.171Z,98139.03
2024-05-09T08:05:10.925Z,98141.09
2024-05-09T08:07:57.187Z,98146.25
2024-05-09T08:10:43.240Z,98146.88
2024-05-09T08:13:29.697Z,98140.56
2024-05-09T08:16:16.462Z,98144.84
2024-05-09T08:19:03.337Z,98141.44
2024-05-09T08:21:49.548Z,98149.66
2024-05-09T08:24:36.117Z,98143.53
2024-05-09T08:27:22.335Z,98145.22
2024-05-09T08:30:15.435Z,98147.09
2024-05-09T08:33:08.082Z,98147.09
2024-05-09T08:35:54.458Z,98148.13
2024-05-09T08:38:40.763Z,98151.25
2024-05-09T08:41:28.473Z,98151.94
2024-05-09T08:44:15.190Z,98142.31
2024-05-09T08:47:01.150Z,98140.09
2024-05-09T08:49:51.340Z,98141.13
2024-05-09T08:52:38.131Z,98141.56
2024-05-09T08:55:27.803Z,98140.69
2024-05-09T08:58:19.253Z,98139.28
2024-05-09T09:01:39.309Z,98135.25
2024-05-09T09:04:28.154Z,98136.31
2024-05-09T09:07:15.365Z,98129.53
2024-05-09T09:10:05.529Z,98131.78
2024-05-09T09:13:00.263Z,98132.78
2024-05-09T09:15:58.656Z,98129.47
2024-05-09T09:18:50.115Z,98130.69
2024-05-09T09:21:36.584Z,98130.84
2024-05-09T09:24:23.354Z,98133.63
2024-05-09T09:27:09.278Z,98138.47
2024-05-09T09:29:57.783Z,98127.78
2024-05-09T09:32:44.584Z,98134.75
2024-05-09T09:35:30.934Z,98133.19
2024-05-09T09:38:22.855Z,98131.66
2024-05-09T09:41:37.325Z,98130.59
2024-05-09T09:44:23.538Z,98125.34
2024-05-09T09:47:10.859Z,98117.03
2024-05-09T09:49:58.863Z,98121.88
2024-05-09T09:52:46.469Z,98120.50
2024-05-09T09:55:33.361Z,98127.44
2024-05-09T09:58:25.054Z,98122.78
2024-05-09T10:01:11.685Z,98128.28
2024-05-09T10:03:59.126Z,98128.38
2024-05-09T10:06:49.113Z,98124.09
2024-05-09T10:09:35.643Z,98121.69
2024-05-09T10:12:22.351Z,98126.25
2024-05-09T10:15:09.753Z,98128.09
2024-05-09T10:18:06.467Z,98122.69
2024-05-09T10:20:54.740Z,98121.91
2024-05-09T10:23:44.892Z,98117.59
2024-05-09T10:26:36.770Z,98109.00
2024-05-09T10:29:26.313Z,98121.59
2024-05-09T10:32:12.436Z,98115.66
2024-05-09T10:35:09.611Z,98108.47
2024-05-09T10:37:56.531Z,98116.53
2024-05-09T10:40:44.124Z,98113.34
2024-05-09T10:43:32.015Z,98117.69
2024-05-09T10:46:21.748Z,98105.94
2024-05-09T10:49:09.645Z,98109.50
2024-05-09T10:51:55.888Z,98109.06
2024-05-09T10:54:42.148Z,98103.50
2024-05-09T10:57:39.818Z,98093.94
2024-05-09T11:03:19.266Z,98090.22
2024-05-09T11:06:07.048Z,98092.34
2024-05-09T11:08:53.969Z,98088.59
2024-05-09T11:11:40.695Z,98083.22
2024-05-09T11:14:27.599Z,98081.06
2024-05-09T11:17:14.021Z,98080.53
2024-05-09T11:20:00.683Z,98080.72
2024-05-09T11:22:47.225Z,98077.06
2024-05-09T11:25:33.423Z,98079.06
2024-05-09T11:28:20.536Z,98079.06
2024-05-09T11:31:10.500Z,98078.22
2024-05-09T11:33:57.453Z,98071.53
2024-05-09T11:36:43.840Z,98076.41
2024-05-09T11:39:30.656Z,98075.47
2024-05-09T11:42:17.788Z,98068.53
2024-05-09T11:45:04.358Z,98065.63
2024-05-09T11:47:50.991Z,98052.78
2024-05-09T11:50:37.600Z,98057.91
2024-05-09T11:53:23.747Z,98056.59
2024-05-09T11:56:12.106Z,98055.31
2024-05-09T11:58:58.199Z,98058.06
2024-05-09T12:01:45.216Z,98052.69
2024-05-09T12:04:32.221Z,98046.53
2024-05-09T12:07:19.071Z,98050.84
2024-05-09T12:10:11.700Z,98042.75
2024-05-09T12:13:00.524Z,98045.97
2024-05-09T12:15:47.369Z,98046.22
2024-05-09T12:18:34.250Z,98046.25
2024-05-09T12:21:20.355Z,98032.28
2024-05-09T12:24:07.069Z,98027.72
2024-05-09T12:26:53.250Z,98030.13
2024-05-09T12:29:39.815Z,98031.78
2024-05-09T12:32:26.460Z,98034.78
2024-05-09T12:35:13.034Z,98030.72
2024-05-09T12:37:59.106Z,98032.63
2024-05-09T12:40:45.178Z,98021.28
2024-05-09T12:43:31.338Z,98016.97
2024-05-09T12:46:20.720Z,98015.91
2024-05-09T12:49:07.139Z,98015.13
2024-05-09T12:51:53.605Z,98013.50
2024-05-09T12:54:40.434Z,98014.28
2024-05-09T12:57:26.941Z,98011.84
2024-05-09T13:00:23.232Z,98003.75
2024-05-09T13:03:14.954Z,98003.50
2024-05-09T13:06:01.868Z,98002.16
2024-05-09T13:08:48.259Z,97999.50
2024-05-09T13:11:59.430Z,97994.94
2024-05-09T13:14:45.982Z,97996.31
2024-05-09T13:17:35.724Z,97991.97
2024-05-09T13:20:29.456Z,97988.19
2024-05-09T13:23:19.148Z,97983.56
2024-05-09T13:26:30.564Z,97974.34
2024-05-09T13:29:16.717Z,97975.66
2024-05-09T13:32:02.843Z,97973.47
2024-05-09T13:34:49.230Z,97972.91
2024-05-09T13:37:36.060Z,97964.56
2024-05-09T13:40:29.794Z,97968.34
2024-05-09T13:43:45.454Z,97962.41
2024-05-09T13:46:32.164Z,97958.34
2024-05-09T13:49:18.826Z,97948.63
2024-05-09T13:52:05.241Z,97954.75
2024-05-09T13:54:51.700Z,97951.03
2024-05-09T13:57:38.289Z,97949.78
2024-05-09T14:00:38.446Z,97950.88
2024-05-09T14:03:30.877Z,97938.59
2024-05-09T14:09:28.856Z,97941.69
2024-05-09T14:12:15.234Z,97938.38
2024-05-09T14:15:01.790Z,97943.59
2024-05-09T14:17:48.412Z,97930.16
2024-05-09T14:20:34.596Z,97932.81
2024-05-09T14:23:20.956Z,97923.94
2024-05-09T14:26:07.147Z,97930.59
2024-05-09T14:28:53.425Z,97931.19
2024-05-09T14:31:40.113Z,97932.31
2024-05-09T14:34:26.253Z,97922.59
2024-05-09T14:37:12.840Z,97927.00
2024-05-09T14:39:59.278Z,97927.53
2024-05-09T14:42:45.505Z,97923.75
2024-05-09T14:45:32.750Z,97920.16
2024-05-09T14:48:20.283Z,97918.16
2024-05-09T14:51:06.940Z,97917.66
2024-05-09T14:53:53.308Z,97918.53
2024-05-09T14:56:39.599Z,97912.75
2024-05-09T14:59:25.696Z,97902.78
2024-05-09T15:02:12.279Z,97906.13
2024-05-09T15:05:04.063Z,97910.09
2024-05-09T15:08:18.365Z,97899.50
2024-05-09T15:11:05.319Z,97898.44
2024-05-09T15:13:51.770Z,97892.75
2024-05-09T15:16:38.120Z,97893.34
2024-05-09T15:19:24.639Z,97891.78
2024-05-09T15:22:16.466Z,97890.69
2024-05-09T15:25:02.818Z,97885.06
2024-05-09T15:27:50.452Z,97880.00
2024-05-09T15:30:37.250Z,97875.13
2024-05-09T15:33:23.997Z,97874.50
2024-05-09T15:36:10.266Z,97870.66
2024-05-09T15:38:56.772Z,97860.88
2024-05-09T15:41:43.090Z,97862.03
2024-05-09T15:44:29.280Z,97857.56
2024-05-09T15:47:15.664Z,97856.41
2024-05-09T15:50:02.376Z,97861.69
2024-05-09T15:52:48.925Z,97853.34
2024-05-09T15:55:35.661Z,97855.97
2024-05-09T15:58:22.493Z,97857.09
2024-05-09T16:01:09.324Z,97851.50
2024-05-09T16:03:55.607Z,97850.63
2024-05-09T16:06:42.556Z,97847.31
2024-05-09T16:09:28.723Z,97851.59
2024-05-09T16:12:15.427Z,97842.34
2024-05-09T16:15:01.194Z,97843.50
2024-05-09T16:17:47.720Z,97848.06
2024-05-09T16:20:39.630Z,97847.97
2024-05-09T16:23:29.073Z,97849.47
2024-05-09T16:26:15.408Z,97848.88
2024-05-09T16:29:01.781Z,97847.22
2024-05-09T16:31:47.916Z,97839.81
2024-05-09T16:34:34.646Z,97842.06
2024-05-09T16:37:21.483Z,97840.00
2024-05-09T16:40:18.638Z,97836.31
2024-05-09T16:43:13.275Z,97834.81
2024-05-09T16:45:59.951Z,97828.69
2024-05-09T16:48:47.362Z,97830.91
2024-05-09T16:51:33.888Z,97834.16
2024-05-09T16:54:20.039Z,97821.53
2024-05-09T16:57:06.954Z,97827.72
2024-05-09T16:59:52.950Z,97827.50
2024-05-09T17:02:40.259Z,97821.88
2024-05-09T17:05:28.485Z,97820.53
2024-05-09T17:08:16.794Z,97822.44
2024-05-09T17:11:05.522Z,97824.84
2024-05-09T17:13:51.776Z,97821.66
2024-05-09T17:16:38.076Z,97821.38
2024-05-09T17:19:24.857Z,97824.59
2024-05-09T17:22:11.777Z,97819.25
2024-05-09T17:28:09.691Z,97818.97
2024-05-09T17:30:56.766Z,97808.22
2024-05-09T17:33:43.308Z,97812.50
2024-05-09T17:36:29.625Z,97809.81
2024-05-09T17:39:16.035Z,97809.78
2024-05-09T17:42:02.374Z,97808.66
2024-05-09T17:44:48.331Z,97815.84
2024-05-09T17:47:37.757Z,97820.91
2024-05-09T17:50:30.886Z,97824.81
2024-05-09T17:53:21.588Z,97826.03
2024-05-09T17:56:09.175Z,97834.00
2024-05-09T17:58:55.618Z,97820.50
2024-05-09T18:01:42.473Z,97825.69
2024-05-09T18:04:31.090Z,97829.81
2024-05-09T18:07:18.960Z,97827.75
2024-05-09T18:10:10.226Z,97824.13
2024-05-09T18:16:11.971Z,97826.41
2024-05-09T18:18:58.446Z,97820.38
2024-05-09T18:21:44.865Z,97824.25
2024-05-09T18:24:31.439Z,97825.63
2024-05-09T18:27:17.739Z,97820.88
2024-05-09T18:30:09.306Z,97823.06
2024-05-09T18:32:56.256Z,97823.25
2024-05-09T18:35:45.856Z,97824.25
2024-05-09T18:38:32.730Z,97827.75
2024-05-09T18:41:21.008Z,97826.53
2024-05-09T18:44:07.367Z,97829.13
2024-05-09T18:46:54.947Z,97834.25
2024-05-09T18:49:42.040Z,97832.41
2024-05-09T18:52:29.775Z,97834.88
2024-05-09T18:55:16.305Z,97838.56
2024-05-09T18:58:07.457Z,97840.44
2024-05-09T19:01:22.146Z,97835.34
2024-05-09T19:04:12.123Z,97840.44
2024-05-09T19:06:58.683Z,97849.31
2024-05-09T19:09:46.190Z,97851.78
2024-05-09T19:12:32.873Z,97860.31
2024-05-09T19:15:19.058Z,97856.75
2024-05-09T19:18:07.719Z,97859.13
2024-05-09T19:20:54.561Z,97863.94
2024-05-09T19:23:47.189Z,97866.91
2024-05-09T19:26:42.193Z,97870.31
2024-05-09T19:29:28.777Z,97869.59
2024-05-09T19:32:15.192Z,97871.97
2024-05-09T19:35:26.853Z,97877.56
2024-05-09T19:38:13.304Z,97881.13
2024-05-09T19:40:59.815Z,97883.50
2024-05-09T19:44:11.923Z,97879.34
2024-05-09T19:46:58.284Z,97888.47
2024-05-09T19:49:44.900Z,97896.53
2024-05-09T19:52:32.792Z,97890.13
2024-05-09T19:55:19.099Z,97894.28
2024-05-09T19:58:07.715Z,97896.19
2024-05-09T20:01:19.816Z,97901.75
2024-05-09T20:04:10.182Z,97903.03
2024-05-09T20:07:21.723Z,97905.72
2024-05-09T20:10:16.750Z,97902.69
2024-05-09T20:13:10.904Z,97907.66
2024-05-09T20:15:58.072Z,97897.91
2024-05-09T20:18:44.522Z,97901.63
2024-05-09T20:21:31.373Z,97906.19
2024-05-09T20:24:17.816Z,97913.13
2024-05-09T20:27:04.915Z,97907.22
2024-05-09T20:29:51.046Z,97908.69
2024-05-09T20:33:04.937Z,97905.84
2024-05-09T20:35:55.477Z,97914.81
2024-05-09T20:38:42.085Z,97908.75
2024-05-09T20:41:28.442Z,97910.78
2024-05-09T20:44:15.837Z,97905.94
2024-05-09T20:47:02.930Z,97912.69
2024-05-09T20:49:51.785Z,97910.03
2024-05-09T20:52:38.455Z,97914.34
2024-05-09T20:55:25.015Z,97909.84
2024-05-09T20:58:12.161Z,97912.72
2024-05-09T21:00:58.960Z,97919.22
2024-05-09T21:03:45.139Z,97918.19
2024-05-09T21:06:31.732Z,97923.88
2024-05-09T21:09:18.087Z,97915.13
2024-05-09T21:12:05.065Z,97912.50
2024-05-09T21:14:51.563Z,97918.59
2024-05-09T21:17:38.206Z,97911.66
2024-05-09T21:20:30.973Z,97913.91
2024-05-09T21:23:19.192Z,97920.56
2024-05-09T21:26:07.385Z,97924.66
2024-05-09T21:28:55.057Z,97916.31
2024-05-09T21:31:42.682Z,97916.72
2024-05-09T21:34:31.099Z,97905.91
2024-05-09T21:37:42.374Z,97908.78
2024-05-09T21:40:34.231Z,97913.22
2024-05-09T21:43:22.213Z,97906.09
2024-05-09T21:46:08.736Z,97907.50
2024-05-09T21:48:58.595Z,97909.28
2024-05-09T21:52:10.514Z,97915.00
2024-05-09T21:54:56.749Z,97912.34
2024-05-09T21:58:08.646Z,97923.72
2024-05-09T22:00:55.008Z,97922.06
2024-05-09T22:03:41.868Z,97925.56
2024-05-09T22:06:28.460Z,97927.19
2024-05-09T22:09:15.013Z,97918.44
2024-05-09T22:12:01.153Z,97920.06
2024-05-09T22:14:51.009Z,97920.47
2024-05-09T22:18:02.517Z,97923.69
2024-05-09T22:20:48.881Z,97918.81
2024-05-09T22:23:35.266Z,97918.22
2024-05-09T22:26:21.864Z,97924.50
2024-05-09T22:29:07.993Z,97921.63
2024-05-09T22:31:54.672Z,97922.22
2024-05-09T22:34:40.925Z,97915.88
2024-05-09T22:37:27.487Z,97922.78
2024-05-09T22:40:20.720Z,97914.00
2024-05-09T22:43:17.881Z,97914.97
2024-05-09T22:46:04.530Z,97917.38
2024-05-09T22:49:16.524Z,97916.16
2024-05-09T22:52:02.753Z,97908.25
2024-05-09T22:54:49.141Z,97912.88
2024-05-09T22:57:35.349Z,97913.44
2024-05-09T23:00:29.378Z,97907.69
2024-05-09T23:03:21.111Z,97902.16
2024-05-09T23:06:08.219Z,97900.94
2024-05-09T23:08:54.108Z,97903.34
2024-05-09T23:11:45.946Z,97910.00
2024-05-09T23:14:32.436Z,97904.72
2024-05-09T23:17:18.736Z,97908.19
2024-05-09T23:20:06.930Z,97909.38
2024-05-09T23:22:55.170Z,97911.59
2024-05-09T23:25:42.056Z,97902.25
2024-05-09T23:28:28.487Z,97905.25
2024-05-09T23:31:15.533Z,97903.81
2024-05-09T23:34:02.060Z,97901.75
2024-05-09T23:36:48.104Z,97904.94
2024-05-09T23:39:34.616Z,97911.19
2024-05-09T23:42:20.696Z,97903.84
2024-05-09T23:45:08.139Z,97907.22
2024-05-09T23:47:54.505Z,97909.81
2024-05-09T23:50:41.503Z,97910.19
2024-05-09T23:53:28.168Z,97912.16
2024-05-09T23:56:17.502Z,97902.00
2024-05-09T23:59:03.651Z,97903.56
